Vera, Argentina
Current Conditions -  °F | °C
As of 11:00 AM on Saturday 25 Oct 2014 (Local Time) from SARE Reporting Station
Clear Clear  
Wind Chill: 90°   Ceiling: Unl
Heat Index: 90°   Visibility: 6mi
Dew Point: 63°   Wind: 3mph
Humidity: 40%   Direction: 180°S
Pressure: 29.88"   Gusts: NA
Location:  29.47°S, 60.22°W
Report Text: SARE 251400Z 18003KT CAVOK 32/17 Q1012
Loading
Personal Weather Stations






























Interactive Weather Map
Tropical Storm Tracking
New forecast layout! Learn more

10-Day Weather Forecast

Advertisements
Track Severe Weather on mobile